Time,TemperatureF,DewpointF,PressureIn,WindDirection,WindDirectionDegrees,WindSpeedMPH,WindSpeedGustMPH,Humidity,HourlyPrecipIn,Conditions,Clouds,dailyrainin,SoftwareType,DateUTC
2013-09-20 00:01:00,69.6,64.2,29.82,North,0,2.0,2.0,83,0.00,,-RA,0.29,VWS V14.01,2013-09-20 04:01:00,
2013-09-20 00:06:00,69.6,64.6,29.82,West,270,0.0,0.0,84,0.00,,-RA,0.29,VWS V14.01,2013-09-20 04:06:00,
2013-09-20 00:11:00,69.6,64.6,29.82,SSE,158,0.0,0.0,84,0.00,,-RA,0.00,VWS V14.01,2013-09-20 04:11:00,
2013-09-20 00:16:00,69.4,64.4,29.82,ENE,68,0.0,0.0,84,0.00,,-RA,0.00,VWS V14.01,2013-09-20 04:16:00,
2013-09-20 00:21:00,69.3,64.6,29.82,ENE,68,0.0,0.0,85,0.00,,-RA,0.00,VWS V14.01,2013-09-20 04:21:00,
2013-09-20 00:26:00,69.3,64.6,29.82,North,0,0.0,0.0,85,0.00,,-RA,0.00,VWS V14.01,2013-09-20 04:26:00,
2013-09-20 00:31:00,69.3,64.6,29.82,SSW,202,0.0,0.0,85,0.00,,-RA,0.00,VWS V14.01,2013-09-20 04:31:00,
2013-09-20 00:36:00,69.3,64.9,29.82,NE,45,0.0,0.0,86,0.00,,-RA,0.00,VWS V14.01,2013-09-20 04:36:00,
2013-09-20 00:41:00,69.3,64.9,29.82,SE,135,0.0,0.0,86,0.00,,-RA,0.00,VWS V14.01,2013-09-20 04:41:00,
2013-09-20 00:46:00,69.3,64.9,29.79,SSE,158,2.9,2.9,86,0.00,,-RA,0.00,VWS V14.01,2013-09-20 04:46:00,
2013-09-20 00:51:00,69.3,64.9,29.79,South,180,2.2,2.2,86,0.00,,-RA,0.00,VWS V14.01,2013-09-20 04:51:00,
2013-09-20 00:56:00,69.4,65.1,29.79,ESE,112,2.0,2.0,86,0.00,,-RA,0.00,VWS V14.01,2013-09-20 04:56:00,
2013-09-20 01:01:00,69.4,65.1,29.79,SE,135,1.6,1.6,86,0.00,,-RA,0.00,VWS V14.01,2013-09-20 05:01:00,
2013-09-20 01:06:00,69.6,65.6,29.79,SSE,158,3.1,3.1,87,0.00,,-RA,0.00,VWS V14.01,2013-09-20 05:06:00,
2013-09-20 01:11:00,70.0,65.9,29.79,South,180,3.1,3.1,87,0.00,,-RA,0.00,VWS V14.01,2013-09-20 05:11:00,
2013-09-20 01:16:00,70.2,66.1,29.79,SSE,158,2.0,2.0,87,0.00,,-RA,0.00,VWS V14.01,2013-09-20 05:16:00,
2013-09-20 01:21:00,70.2,66.1,29.79,West,270,0.9,0.9,87,0.00,,-RA,0.00,VWS V14.01,2013-09-20 05:21:00,
2013-09-20 01:26:00,70.2,66.1,29.79,SW,225,1.6,1.6,87,0.00,,-RA,0.00,VWS V14.01,2013-09-20 05:26:00,
2013-09-20 01:31:00,70.0,65.9,29.79,ESE,112,2.9,2.9,87,0.00,,-RA,0.00,VWS V14.01,2013-09-20 05:31:00,
2013-09-20 01:36:00,70.2,66.1,29.79,SE,135,1.6,1.6,87,0.00,,-RA,0.00,VWS V14.01,2013-09-20 05:36:00,
2013-09-20 01:41:00,70.2,66.1,29.79,SE,135,0.0,0.0,87,0.00,,-RA,0.00,VWS V14.01,2013-09-20 05:41:00,
2013-09-20 01:46:00,70.2,66.1,29.79,ENE,68,0.0,0.0,87,0.00,,-RA,0.00,VWS V14.01,2013-09-20 05:46:00,
2013-09-20 01:51:00,70.2,66.1,29.79,SSE,158,2.5,2.5,87,0.00,,-RA,0.00,VWS V14.01,2013-09-20 05:51:00,
2013-09-20 01:56:00,70.2,66.1,29.79,South,180,1.6,1.6,87,0.00,,-RA,0.00,VWS V14.01,2013-09-20 05:56:00,
2013-09-20 02:01:00,70.0,66.3,29.76,SE,135,3.1,3.1,88,0.00,,-RA,0.00,VWS V14.01,2013-09-20 06:01:00,
2013-09-20 02:06:00,70.2,66.4,29.76,SSE,158,2.2,2.2,88,0.00,,-RA,0.00,VWS V14.01,2013-09-20 06:06:00,
2013-09-20 02:11:00,70.3,66.9,29.76,ESE,112,3.6,3.6,89,0.00,,-RA,0.00,VWS V14.01,2013-09-20 06:11:00,
2013-09-20 02:16:00,70.2,66.4,29.79,South,180,4.0,4.0,88,0.00,,-RA,0.00,VWS V14.01,2013-09-20 06:16:00,
2013-09-20 02:21:00,70.0,66.6,29.79,SSW,202,2.7,2.7,89,0.00,,-RA,0.00,VWS V14.01,2013-09-20 06:21:00,
2013-09-20 02:26:00,69.8,66.4,29.79,SE,135,0.0,0.0,89,0.00,,-RA,0.00,VWS V14.01,2013-09-20 06:26:00,
2013-09-20 02:31:00,69.6,66.6,29.79,South,180,3.8,3.8,90,0.00,,-RA,0.00,VWS V14.01,2013-09-20 06:31:00,
2013-09-20 02:36:00,69.6,66.9,29.79,SE,135,2.2,2.2,91,0.00,,-RA,0.00,VWS V14.01,2013-09-20 06:36:00,
2013-09-20 02:41:00,69.4,66.7,29.79,SSE,158,2.5,2.5,91,0.00,,-RA,0.00,VWS V14.01,2013-09-20 06:41:00,
2013-09-20 02:46:00,69.4,66.7,29.79,South,180,2.5,2.5,91,0.00,,-RA,0.00,VWS V14.01,2013-09-20 06:46:00,
2013-09-20 02:51:00,69.3,66.8,29.79,SE,135,1.6,1.6,92,0.00,,-RA,0.00,VWS V14.01,2013-09-20 06:51:00,
2013-09-20 02:56:00,69.3,66.8,29.79,SSE,158,1.3,1.3,92,0.00,,-RA,0.00,VWS V14.01,2013-09-20 06:56:00,
2013-09-20 03:01:00,69.3,66.8,29.76,SSE,158,1.1,1.1,92,0.00,,-RA,0.00,VWS V14.01,2013-09-20 07:01:00,
2013-09-20 03:06:00,69.3,67.2,29.76,SSE,158,0.9,0.9,93,0.00,,-RA,0.00,VWS V14.01,2013-09-20 07:06:00,
2013-09-20 03:11:00,69.3,67.2,29.76,SSE,158,3.1,3.1,93,0.00,,-RA,0.00,VWS V14.01,2013-09-20 07:11:00,
2013-09-20 03:16:00,69.3,67.2,29.76,SSE,158,5.4,5.4,93,0.00,,-RA,0.00,VWS V14.01,2013-09-20 07:16:00,
2013-09-20 03:21:00,69.4,67.6,29.76,SSE,158,1.1,1.1,94,0.00,,-RA,0.00,VWS V14.01,2013-09-20 07:21:00,
2013-09-20 03:26:00,69.8,68.0,29.76,SSE,158,2.5,2.5,94,0.00,,-RA,0.00,VWS V14.01,2013-09-20 07:26:00,
2013-09-20 03:31:00,69.8,68.0,29.76,SSE,158,3.4,3.4,94,0.00,,-RA,0.00,VWS V14.01,2013-09-20 07:31:00,
2013-09-20 03:36:00,69.8,68.0,29.76,NE,45,1.6,1.6,94,0.00,,-RA,0.00,VWS V14.01,2013-09-20 07:36:00,
2013-09-20 03:41:00,70.0,68.2,29.76,SSE,158,0.0,0.0,94,0.00,,-RA,0.00,VWS V14.01,2013-09-20 07:41:00,
2013-09-20 03:46:00,70.0,68.2,29.76,South,180,0.9,0.9,94,0.00,,-RA,0.00,VWS V14.01,2013-09-20 07:46:00,
2013-09-20 03:51:00,69.8,68.0,29.76,South,180,0.0,0.0,94,0.00,,-RA,0.00,VWS V14.01,2013-09-20 07:51:00,
2013-09-20 03:56:00,69.6,67.8,29.76,SE,135,2.9,2.9,94,0.00,,-RA,0.00,VWS V14.01,2013-09-20 07:56:00,
2013-09-20 04:01:00,69.4,67.6,29.76,SE,135,2.0,2.0,94,0.00,,-RA,0.00,VWS V14.01,2013-09-20 08:01:00,
2013-09-20 04:06:00,69.3,67.5,29.76,SSE,158,0.0,0.0,94,0.00,,-RA,0.00,VWS V14.01,2013-09-20 08:06:00,
2013-09-20 04:11:00,69.1,67.3,29.76,SSW,202,1.6,1.6,94,0.00,,-RA,0.00,VWS V14.01,2013-09-20 08:11:00,
2013-09-20 04:16:00,69.1,67.6,29.76,South,180,2.0,2.0,95,0.00,,-RA,0.00,VWS V14.01,2013-09-20 08:16:00,
2013-09-20 04:21:00,69.3,67.8,29.76,WSW,248,2.7,2.7,95,0.00,,-RA,0.00,VWS V14.01,2013-09-20 08:21:00,
2013-09-20 04:26:00,69.3,67.8,29.76,South,180,0.0,0.0,95,0.00,,-RA,0.00,VWS V14.01,2013-09-20 08:26:00,
2013-09-20 04:31:00,69.1,67.6,29.74,WSW,248,0.0,0.0,95,0.00,,-RA,0.00,VWS V14.01,2013-09-20 08:31:00,
2013-09-20 04:36:00,69.1,67.6,29.74,WSW,248,3.4,3.4,95,0.00,,-RA,0.00,VWS V14.01,2013-09-20 08:36:00,
2013-09-20 04:41:00,69.1,67.6,29.74,North,0,0.0,0.0,95,0.00,,-RA,0.00,VWS V14.01,2013-09-20 08:41:00,
2013-09-20 04:46:00,68.9,67.4,29.74,South,180,0.9,0.9,95,0.00,,-RA,0.00,VWS V14.01,2013-09-20 08:46:00,
2013-09-20 04:51:00,68.9,67.4,29.74,WSW,248,2.7,2.7,95,0.00,,-RA,0.00,VWS V14.01,2013-09-20 08:51:00,
2013-09-20 04:56:00,69.1,67.9,29.74,WSW,248,3.4,3.4,96,0.00,,-RA,0.00,VWS V14.01,2013-09-20 08:56:00,
2013-09-20 05:01:00,69.1,67.9,29.74,South,180,0.9,0.9,96,0.00,,-RA,0.00,VWS V14.01,2013-09-20 09:01:00,
2013-09-20 05:06:00,69.3,68.1,29.74,SSE,158,0.0,0.0,96,0.00,,-RA,0.00,VWS V14.01,2013-09-20 09:06:00,
2013-09-20 05:11:00,69.3,68.1,29.74,SSW,202,0.9,0.9,96,0.00,,-RA,0.00,VWS V14.01,2013-09-20 09:11:00,
2013-09-20 05:16:00,69.3,68.1,29.74,South,180,1.1,1.1,96,0.00,,-RA,0.00,VWS V14.01,2013-09-20 09:16:00,
2013-09-20 05:21:00,69.3,68.1,29.74,SSE,158,0.0,0.0,96,0.00,,-RA,0.00,VWS V14.01,2013-09-20 09:21:00,
2013-09-20 05:26:00,69.3,68.1,29.74,SSE,158,2.0,2.0,96,0.00,,-RA,0.00,VWS V14.01,2013-09-20 09:26:00,
2013-09-20 05:31:00,69.3,68.1,29.74,SSW,202,0.0,0.0,96,0.00,,-RA,0.00,VWS V14.01,2013-09-20 09:31:00,
2013-09-20 05:36:00,69.3,68.4,29.74,SSE,158,2.0,2.0,97,0.00,,-RA,0.00,VWS V14.01,2013-09-20 09:36:00,
2013-09-20 05:41:00,69.3,68.4,29.74,SSE,158,1.1,1.1,97,0.00,,-RA,0.00,VWS V14.01,2013-09-20 09:41:00,
2013-09-20 05:46:00,69.3,68.4,29.74,South,180,0.0,0.0,97,0.00,,-RA,0.00,VWS V14.01,2013-09-20 09:46:00,
2013-09-20 05:51:00,68.9,67.7,29.74,SE,135,0.0,0.0,96,0.00,,-RA,0.00,VWS V14.01,2013-09-20 09:51:00,
2013-09-20 05:56:00,68.9,68.0,29.74,South,180,0.0,0.0,97,0.00,,-RA,0.00,VWS V14.01,2013-09-20 09:56:00,
2013-09-20 06:01:00,68.9,68.0,29.74,SSE,158,0.0,0.0,97,0.00,,-RA,0.00,VWS V14.01,2013-09-20 10:01:00,
2013-09-20 06:06:00,69.1,68.2,29.74,SSE,158,0.0,0.0,97,0.00,,-RA,0.00,VWS V14.01,2013-09-20 10:06:00,
2013-09-20 06:11:00,69.1,68.2,29.74,SSE,158,3.1,3.1,97,0.00,,-RA,0.00,VWS V14.01,2013-09-20 10:11:00,
2013-09-20 06:16:00,69.3,68.4,29.74,SSE,158,2.5,2.5,97,0.00,,-RA,0.00,VWS V14.01,2013-09-20 10:16:00,
2013-09-20 06:21:00,69.4,68.6,29.74,SSW,202,0.0,0.0,97,0.00,,-RA,0.00,VWS V14.01,2013-09-20 10:21:00,
2013-09-20 06:26:00,69.4,68.6,29.74,SSE,158,2.5,2.5,97,0.00,,-RA,0.00,VWS V14.01,2013-09-20 10:26:00,
2013-09-20 06:31:00,69.3,68.4,29.74,ENE,68,0.0,0.0,97,0.00,,-RA,0.00,VWS V14.01,2013-09-20 10:31:00,
2013-09-20 06:36:00,69.4,68.6,29.74,SSE,158,2.0,2.0,97,0.00,,-RA,0.00,VWS V14.01,2013-09-20 10:36:00,
2013-09-20 06:41:00,69.4,68.6,29.74,South,180,0.0,0.0,97,0.00,,-RA,0.00,VWS V14.01,2013-09-20 10:41:00,
2013-09-20 06:46:00,69.3,68.4,29.74,South,180,0.0,0.0,97,0.00,,-RA,0.00,VWS V14.01,2013-09-20 10:46:00,
2013-09-20 06:51:00,69.1,68.2,29.74,West,270,0.9,0.9,97,0.00,,-RA,0.00,VWS V14.01,2013-09-20 10:51:00,
2013-09-20 06:56:00,69.1,68.2,29.74,SSW,202,0.0,0.0,97,0.00,,-RA,0.00,VWS V14.01,2013-09-20 10:56:00,
2013-09-20 07:01:00,69.3,68.4,29.74,South,180,0.9,0.9,97,0.00,,-RA,0.00,VWS V14.01,2013-09-20 11:01:00,
2013-09-20 07:06:00,69.3,68.4,29.74,WSW,248,0.0,0.0,97,0.00,,-RA,0.00,VWS V14.01,2013-09-20 11:06:00,
2013-09-20 07:11:00,69.3,68.4,29.74,SSW,202,0.9,0.9,97,0.00,,-RA,0.00,VWS V14.01,2013-09-20 11:11:00,
2013-09-20 07:16:00,69.3,68.4,29.76,SSW,202,2.7,2.7,97,0.00,,-RA,0.00,VWS V14.01,2013-09-20 11:16:00,
2013-09-20 07:21:00,69.3,68.7,29.76,WSW,248,0.0,0.0,98,0.00,,-RA,0.00,VWS V14.01,2013-09-20 11:21:00,
2013-09-20 07:26:00,69.3,68.7,29.76,NNW,338,0.0,0.0,98,0.00,,-RA,0.00,VWS V14.01,2013-09-20 11:26:00,
2013-09-20 07:31:00,69.3,68.7,29.76,WSW,248,0.0,0.0,98,0.00,,-RA,0.00,VWS V14.01,2013-09-20 11:31:00,
2013-09-20 07:36:00,69.1,68.2,29.76,WNW,292,2.9,2.9,97,0.00,,-RA,0.00,VWS V14.01,2013-09-20 11:36:00,
2013-09-20 07:41:00,69.1,68.2,29.76,WNW,292,3.4,3.4,97,0.00,,-RA,0.00,VWS V14.01,2013-09-20 11:41:00,
2013-09-20 07:46:00,69.1,67.9,29.76,ESE,112,3.1,3.1,96,0.00,,-RA,0.00,VWS V14.01,2013-09-20 11:46:00,
2013-09-20 07:51:00,69.1,67.6,29.76,SSE,158,1.3,1.3,95,0.00,,-RA,0.00,VWS V14.01,2013-09-20 11:51:00,
2013-09-20 07:56:00,68.9,67.1,29.76,WNW,292,2.5,2.5,94,0.00,,-RA,0.00,VWS V14.01,2013-09-20 11:56:00,
2013-09-20 08:01:00,68.9,66.8,29.76,WNW,292,0.9,0.9,93,0.00,,-RA,0.00,VWS V14.01,2013-09-20 12:01:00,
2013-09-20 08:06:00,68.7,66.3,29.76,WNW,292,1.6,1.6,92,0.00,,-RA,0.00,VWS V14.01,2013-09-20 12:06:00,
2013-09-20 08:11:00,68.5,66.1,29.76,WNW,292,2.2,2.2,92,0.00,,-RA,0.00,VWS V14.01,2013-09-20 12:11:00,
2013-09-20 08:16:00,68.5,65.8,29.76,NW,315,2.0,2.0,91,0.00,,-RA,0.00,VWS V14.01,2013-09-20 12:16:00,
2013-09-20 08:21:00,68.5,65.8,29.76,WSW,248,3.1,3.1,91,0.00,,-RA,0.00,VWS V14.01,2013-09-20 12:21:00,
2013-09-20 08:26:00,68.5,65.5,29.76,SSE,158,2.5,2.5,90,0.00,,-RA,0.00,VWS V14.01,2013-09-20 12:26:00,
2013-09-20 08:31:00,68.5,65.5,29.76,ESE,112,4.7,4.7,90,0.00,,-RA,0.00,VWS V14.01,2013-09-20 12:31:00,
2013-09-20 08:36:00,68.5,65.2,29.76,West,270,3.4,3.4,89,0.00,,-RA,0.00,VWS V14.01,2013-09-20 12:36:00,
2013-09-20 08:41:00,68.5,65.2,29.76,SSE,158,2.5,2.5,89,0.00,,-RA,0.00,VWS V14.01,2013-09-20 12:41:00,
2013-09-20 08:46:00,68.7,65.0,29.76,SSE,158,3.4,3.4,88,0.00,,-RA,0.00,VWS V14.01,2013-09-20 12:46:00,
2013-09-20 08:51:00,68.7,65.0,29.76,SE,135,2.5,2.5,88,0.00,,-RA,0.00,VWS V14.01,2013-09-20 12:51:00,
2013-09-20 08:56:00,68.9,64.9,29.76,SSW,202,0.9,0.9,87,0.00,,-RA,0.00,VWS V14.01,2013-09-20 12:56:00,
2013-09-20 09:01:00,69.1,65.1,29.76,SSW,202,3.8,3.8,87,0.00,,-RA,0.00,VWS V14.01,2013-09-20 13:01:00,
2013-09-20 09:06:00,69.1,64.7,29.76,WSW,248,0.0,0.0,86,0.00,,-RA,0.00,VWS V14.01,2013-09-20 13:06:00,
2013-09-20 09:11:00,69.1,64.7,29.76,WNW,292,0.0,0.0,86,0.00,,-RA,0.00,VWS V14.01,2013-09-20 13:11:00,
2013-09-20 09:16:00,69.4,65.1,29.76,WNW,292,2.5,2.5,86,0.00,,-RA,0.00,VWS V14.01,2013-09-20 13:16:00,
2013-09-20 09:21:00,69.6,64.9,29.76,SSW,202,2.5,2.5,85,0.00,,-RA,0.00,VWS V14.01,2013-09-20 13:21:00,
2013-09-20 09:26:00,69.8,64.8,29.76,SSW,202,2.9,2.9,84,0.00,,-RA,0.00,VWS V14.01,2013-09-20 13:26:00,
2013-09-20 09:31:00,69.8,64.1,29.76,WSW,248,0.0,0.0,82,0.00,,-RA,0.00,VWS V14.01,2013-09-20 13:31:00,
2013-09-20 09:36:00,69.8,64.4,29.76,WNW,292,3.4,3.4,83,0.00,,-RA,0.00,VWS V14.01,2013-09-20 13:36:00,
2013-09-20 09:41:00,69.6,63.9,29.76,NW,315,2.9,2.9,82,0.00,,-RA,0.00,VWS V14.01,2013-09-20 13:41:00,
2013-09-20 09:46:00,69.6,63.9,29.76,NW,315,0.0,0.0,82,0.00,,-RA,0.00,VWS V14.01,2013-09-20 13:46:00,
2013-09-20 09:51:00,69.6,63.9,29.76,NW,315,3.1,3.1,82,0.00,,-RA,0.00,VWS V14.01,2013-09-20 13:51:00,
2013-09-20 09:56:00,69.4,63.7,29.76,South,180,5.8,5.8,82,0.00,,-RA,0.00,VWS V14.01,2013-09-20 13:56:00,
2013-09-20 10:01:00,69.4,63.7,29.76,NE,45,2.7,2.7,82,0.00,,-RA,0.00,VWS V14.01,2013-09-20 14:01:00,
2013-09-20 10:06:00,69.3,63.5,29.76,SW,225,0.9,0.9,82,0.00,,-RA,0.00,VWS V14.01,2013-09-20 14:06:00,
2013-09-20 10:11:00,69.1,63.4,29.76,NW,315,1.3,1.3,82,0.00,,-RA,0.00,VWS V14.01,2013-09-20 14:11:00,
2013-09-20 10:16:00,69.1,63.4,29.76,West,270,1.3,1.3,82,0.00,,-RA,0.00,VWS V14.01,2013-09-20 14:16:00,
2013-09-20 10:21:00,69.3,63.5,29.76,SW,225,0.0,0.0,82,0.00,,-RA,0.00,VWS V14.01,2013-09-20 14:21:00,
2013-09-20 10:26:00,69.3,63.9,29.76,SW,225,2.7,2.7,83,0.00,,-RA,0.00,VWS V14.01,2013-09-20 14:26:00,
2013-09-20 10:31:00,69.4,64.1,29.76,NW,315,2.0,2.0,83,0.00,,-RA,0.00,VWS V14.01,2013-09-20 14:31:00,
2013-09-20 10:36:00,69.4,64.1,29.76,East,90,2.5,2.5,83,0.00,,-RA,0.00,VWS V14.01,2013-09-20 14:36:00,
2013-09-20 10:41:00,69.6,64.2,29.76,SSE,158,2.9,2.9,83,0.00,,-RA,0.00,VWS V14.01,2013-09-20 14:41:00,
2013-09-20 10:46:00,69.8,64.1,29.76,WNW,292,2.5,2.5,82,0.00,,-RA,0.00,VWS V14.01,2013-09-20 14:46:00,
2013-09-20 10:51:00,70.0,64.2,29.76,SSW,202,2.5,2.5,82,0.00,,-RA,0.00,VWS V14.01,2013-09-20 14:51:00,
2013-09-20 10:56:00,70.0,63.9,29.76,WSW,248,1.6,1.6,81,0.00,,-RA,0.00,VWS V14.01,2013-09-20 14:56:00,
2013-09-20 11:01:00,70.0,63.9,29.76,ESE,112,2.2,2.2,81,0.00,,-RA,0.00,VWS V14.01,2013-09-20 15:01:00,
2013-09-20 11:05:00,70.0,63.5,29.76,West,270,2.5,2.5,80,0.00,,-RA,0.00,VWS V14.01,2013-09-20 15:05:00,
2013-09-20 11:10:00,69.8,63.4,29.76,WSW,248,2.0,2.0,80,0.00,,-RA,0.00,VWS V14.01,2013-09-20 15:10:00,
2013-09-20 11:16:00,69.8,63.4,29.76,NNE,22,1.1,1.1,80,0.00,,-RA,0.00,VWS V14.01,2013-09-20 15:16:00,
2013-09-20 11:21:00,69.6,63.2,29.76,South,180,1.3,1.3,80,0.00,,-RA,0.00,VWS V14.01,2013-09-20 15:21:00,
2013-09-20 11:26:00,69.6,63.2,29.76,South,180,2.7,2.7,80,0.00,,-RA,0.00,VWS V14.01,2013-09-20 15:26:00,
2013-09-20 11:31:00,69.6,63.2,29.76,SSE,158,0.0,0.0,80,0.00,,-RA,0.00,VWS V14.01,2013-09-20 15:31:00,
2013-09-20 11:36:00,69.6,63.2,29.76,NNW,338,1.1,1.1,80,0.00,,-RA,0.00,VWS V14.01,2013-09-20 15:36:00,
2013-09-20 11:41:00,69.8,63.4,29.76,NNW,338,2.2,2.2,80,0.00,,-RA,0.00,VWS V14.01,2013-09-20 15:41:00,
2013-09-20 11:46:00,69.8,63.4,29.76,WNW,292,3.6,3.6,80,0.00,,-RA,0.00,VWS V14.01,2013-09-20 15:46:00,
2013-09-20 11:51:00,69.6,63.2,29.76,South,180,1.3,1.3,80,0.00,,-RA,0.00,VWS V14.01,2013-09-20 15:51:00,
2013-09-20 11:56:00,69.6,63.2,29.76,SE,135,3.1,3.1,80,0.00,,-RA,0.00,VWS V14.01,2013-09-20 15:56:00,
2013-09-20 12:01:00,69.6,63.2,29.76,South,180,2.0,2.0,80,0.00,,-RA,0.00,VWS V14.01,2013-09-20 16:01:00,
2013-09-20 12:06:00,69.4,63.0,29.76,North,0,2.9,2.9,80,0.00,,-RA,0.00,VWS V14.01,2013-09-20 16:06:00,
2013-09-20 12:11:00,69.6,63.2,29.76,ESE,112,5.4,5.4,80,0.00,,-RA,0.00,VWS V14.01,2013-09-20 16:11:00,
2013-09-20 12:16:00,69.6,63.2,29.76,WNW,292,4.5,4.5,80,0.00,,-RA,0.00,VWS V14.01,2013-09-20 16:16:00,
2013-09-20 12:21:00,69.8,63.4,29.76,SE,135,1.3,1.3,80,0.00,,-RA,0.00,VWS V14.01,2013-09-20 16:21:00,
2013-09-20 12:26:00,70.0,63.5,29.76,SSE,158,1.1,1.1,80,0.00,,-RA,0.00,VWS V14.01,2013-09-20 16:26:00,
2013-09-20 12:31:00,70.2,63.7,29.76,South,180,0.0,0.0,80,0.00,,-RA,0.00,VWS V14.01,2013-09-20 16:31:00,
2013-09-20 12:35:00,70.2,63.3,29.76,SSW,202,4.0,4.0,79,0.00,,-RA,0.00,VWS V14.01,2013-09-20 16:35:00,
2013-09-20 12:40:00,70.2,63.3,29.76,North,0,2.2,2.2,79,0.00,,-RA,0.00,VWS V14.01,2013-09-20 16:40:00,
2013-09-20 12:45:00,70.3,63.5,29.76,SSE,158,2.0,2.0,79,0.00,,-RA,0.00,VWS V14.01,2013-09-20 16:45:00,
2013-09-20 12:50:00,70.3,63.5,29.76,South,180,2.5,2.5,79,0.00,,-RA,0.00,VWS V14.01,2013-09-20 16:50:00,
2013-09-20 12:55:00,70.3,63.5,29.76,West,270,3.1,3.1,79,0.00,,-RA,0.00,VWS V14.01,2013-09-20 16:55:00,
2013-09-20 13:00:00,70.2,63.3,29.76,SW,225,4.0,4.0,79,0.00,,-RA,0.00,VWS V14.01,2013-09-20 17:00:00,
2013-09-20 13:05:00,70.3,63.2,29.76,WNW,292,1.1,1.1,78,0.00,,-RA,0.00,VWS V14.01,2013-09-20 17:05:00,
2013-09-20 13:10:00,70.2,63.0,29.76,WSW,248,2.0,2.0,78,0.00,,-RA,0.00,VWS V14.01,2013-09-20 17:10:00,
2013-09-20 13:15:00,70.3,63.2,29.74,ENE,68,3.8,3.8,78,0.00,,-RA,0.00,VWS V14.01,2013-09-20 17:15:00,
2013-09-20 13:20:00,70.3,63.2,29.74,SSE,158,1.1,1.1,78,0.00,,-RA,0.00,VWS V14.01,2013-09-20 17:20:00,
2013-09-20 13:25:00,70.2,63.0,29.74,WSW,248,3.4,3.4,78,0.00,,-RA,0.00,VWS V14.01,2013-09-20 17:25:00,
2013-09-20 13:30:00,70.2,63.0,29.76,SSE,158,2.7,2.7,78,0.00,,-RA,0.00,VWS V14.01,2013-09-20 17:30:00,
2013-09-20 13:35:00,70.2,62.6,29.76,West,270,3.1,3.1,77,0.00,,-RA,0.00,VWS V14.01,2013-09-20 17:35:00,
2013-09-20 13:40:00,70.2,63.0,29.76,WNW,292,2.2,2.2,78,0.00,,-RA,0.00,VWS V14.01,2013-09-20 17:40:00,
2013-09-20 13:45:00,70.0,62.8,29.76,West,270,0.0,0.0,78,0.00,,-RA,0.00,VWS V14.01,2013-09-20 17:45:00,
2013-09-20 13:50:00,70.2,63.0,29.76,WNW,292,3.4,3.4,78,0.00,,-RA,0.00,VWS V14.01,2013-09-20 17:50:00,
2013-09-20 13:55:00,70.2,63.0,29.76,NE,45,1.6,1.6,78,0.00,,-RA,0.00,VWS V14.01,2013-09-20 17:55:00,
2013-09-20 14:00:00,70.2,63.0,29.74,SE,135,5.8,5.8,78,0.00,,-RA,0.00,VWS V14.01,2013-09-20 18:00:00,
2013-09-20 14:05:00,70.2,63.0,29.74,WNW,292,0.0,0.0,78,0.00,,-RA,0.00,VWS V14.01,2013-09-20 18:05:00,
2013-09-20 14:10:00,70.2,63.0,29.74,SW,225,1.6,1.6,78,0.00,,-RA,0.00,VWS V14.01,2013-09-20 18:10:00,
2013-09-20 14:15:00,70.0,62.8,29.74,NW,315,4.3,4.3,78,0.00,,-RA,0.00,VWS V14.01,2013-09-20 18:15:00,
2013-09-20 14:20:00,69.8,62.6,29.74,WSW,248,2.7,2.7,78,0.00,,-RA,0.00,VWS V14.01,2013-09-20 18:20:00,
2013-09-20 14:25:00,69.8,62.6,29.74,WNW,292,2.0,2.0,78,0.00,,-RA,0.00,VWS V14.01,2013-09-20 18:25:00,
2013-09-20 14:30:00,69.6,62.8,29.74,East,90,0.0,0.0,79,0.00,,-RA,0.00,VWS V14.01,2013-09-20 18:30:00,
2013-09-20 14:35:00,69.6,62.8,29.74,SSW,202,1.6,1.6,79,0.00,,-RA,0.00,VWS V14.01,2013-09-20 18:35:00,
2013-09-20 14:40:00,69.6,63.2,29.74,NNW,338,0.0,0.0,80,0.00,,-RA,0.00,VWS V14.01,2013-09-20 18:40:00,
2013-09-20 14:45:00,69.6,63.2,29.74,NNW,338,2.9,2.9,80,0.00,,-RA,0.00,VWS V14.01,2013-09-20 18:45:00,
2013-09-20 14:50:00,69.6,63.2,29.74,WSW,248,3.8,3.8,80,0.00,,-RA,0.00,VWS V14.01,2013-09-20 18:50:00,
2013-09-20 14:55:00,69.6,63.2,29.74,SSW,202,3.6,3.6,80,0.00,,-RA,0.00,VWS V14.01,2013-09-20 18:55:00,
2013-09-20 15:00:00,69.4,63.0,29.74,SSE,158,1.1,1.1,80,0.00,,-RA,0.00,VWS V14.01,2013-09-20 19:00:00,
2013-09-20 15:05:00,69.6,63.2,29.74,SE,135,0.0,0.0,80,0.00,,-RA,0.00,VWS V14.01,2013-09-20 19:05:00,
2013-09-20 15:10:00,69.6,63.5,29.74,West,270,2.5,2.5,81,0.00,,-RA,0.00,VWS V14.01,2013-09-20 19:10:00,
2013-09-20 15:15:00,69.8,63.4,29.74,NNW,338,2.2,2.2,80,0.00,,-RA,0.00,VWS V14.01,2013-09-20 19:15:00,
2013-09-20 15:20:00,69.8,63.4,29.74,NW,315,3.8,3.8,80,0.00,,-RA,0.00,VWS V14.01,2013-09-20 19:20:00,
2013-09-20 15:25:00,70.0,63.5,29.74,WSW,248,1.6,1.6,80,0.00,,-RA,0.00,VWS V14.01,2013-09-20 19:25:00,
2013-09-20 15:30:00,70.2,63.7,29.74,South,180,1.1,1.1,80,0.00,,-RA,0.00,VWS V14.01,2013-09-20 19:30:00,
2013-09-20 15:35:00,70.2,63.3,29.74,SSW,202,2.0,2.0,79,0.00,,-RA,0.00,VWS V14.01,2013-09-20 19:35:00,
2013-09-20 15:40:00,70.3,63.5,29.74,WSW,248,4.3,4.3,79,0.00,,-RA,0.00,VWS V14.01,2013-09-20 19:40:00,
2013-09-20 15:45:00,70.5,63.7,29.74,SSW,202,1.6,1.6,79,0.00,,-RA,0.00,VWS V14.01,2013-09-20 19:45:00,
2013-09-20 15:50:00,70.7,63.9,29.74,East,90,1.3,1.3,79,0.00,,-RA,0.00,VWS V14.01,2013-09-20 19:50:00,
2013-09-20 15:55:00,70.7,63.5,29.74,SSE,158,0.9,0.9,78,0.00,,-RA,0.00,VWS V14.01,2013-09-20 19:55:00,
2013-09-20 16:00:00,70.7,63.5,29.74,WSW,248,1.3,1.3,78,0.00,,-RA,0.00,VWS V14.01,2013-09-20 20:00:00,
2013-09-20 16:05:00,70.7,63.5,29.74,WNW,292,0.0,0.0,78,0.00,,-RA,0.00,VWS V14.01,2013-09-20 20:05:00,
2013-09-20 16:10:00,70.7,63.5,29.74,NW,315,1.1,1.1,78,0.00,,-RA,0.00,VWS V14.01,2013-09-20 20:10:00,
2013-09-20 16:15:00,70.7,63.5,29.74,West,270,3.4,3.4,78,0.00,,-RA,0.00,VWS V14.01,2013-09-20 20:15:00,
2013-09-20 16:20:00,70.7,63.5,29.74,WSW,248,2.7,2.7,78,0.00,,-RA,0.00,VWS V14.01,2013-09-20 20:20:00,
2013-09-20 16:25:00,70.5,63.3,29.74,SSW,202,0.9,0.9,78,0.00,,-RA,0.00,VWS V14.01,2013-09-20 20:25:00,
2013-09-20 16:30:00,70.5,63.3,29.71,West,270,1.1,1.1,78,0.00,,-RA,0.00,VWS V14.01,2013-09-20 20:30:00,
2013-09-20 16:35:00,70.5,63.3,29.71,SSE,158,0.0,0.0,78,0.00,,-RA,0.00,VWS V14.01,2013-09-20 20:35:00,
2013-09-20 16:40:00,70.5,63.3,29.71,NW,315,2.7,2.7,78,0.00,,-RA,0.00,VWS V14.01,2013-09-20 20:40:00,
2013-09-20 16:45:00,70.5,63.0,29.74,WSW,248,1.6,1.6,77,0.00,,-RA,0.00,VWS V14.01,2013-09-20 20:45:00,
2013-09-20 16:50:00,70.5,63.0,29.74,NE,45,2.2,2.2,77,0.00,,-RA,0.00,VWS V14.01,2013-09-20 20:50:00,
2013-09-20 16:55:00,70.3,62.8,29.74,SSW,202,0.0,0.0,77,0.00,,-RA,0.00,VWS V14.01,2013-09-20 20:55:00,
2013-09-20 17:00:00,70.3,62.8,29.74,WSW,248,0.9,0.9,77,0.00,,-RA,0.00,VWS V14.01,2013-09-20 21:00:00,
2013-09-20 17:05:00,70.3,62.8,29.74,WSW,248,3.1,3.1,77,0.00,,-RA,0.00,VWS V14.01,2013-09-20 21:05:00,
2013-09-20 17:10:00,70.2,62.6,29.74,WSW,248,0.0,0.0,77,0.00,,-RA,0.00,VWS V14.01,2013-09-20 21:10:00,
2013-09-20 17:15:00,70.2,62.6,29.74,WNW,292,2.2,2.2,77,0.00,,-RA,0.00,VWS V14.01,2013-09-20 21:15:00,
2013-09-20 17:20:00,70.2,62.6,29.74,NNW,338,3.1,3.1,77,0.00,,-RA,0.00,VWS V14.01,2013-09-20 21:20:00,
2013-09-20 17:25:00,70.2,62.6,29.74,West,270,5.4,5.4,77,0.00,,-RA,0.00,VWS V14.01,2013-09-20 21:25:00,
2013-09-20 17:30:00,70.2,62.6,29.74,SW,225,0.0,0.0,77,0.00,,-RA,0.00,VWS V14.01,2013-09-20 21:30:00,
2013-09-20 17:35:00,70.3,62.8,29.74,WNW,292,1.6,1.6,77,0.00,,-RA,0.00,VWS V14.01,2013-09-20 21:35:00,
2013-09-20 17:40:00,70.5,63.0,29.74,WSW,248,3.1,3.1,77,0.00,,-RA,0.00,VWS V14.01,2013-09-20 21:40:00,
2013-09-20 17:45:00,70.5,63.0,29.71,NNW,338,4.9,4.9,77,0.00,,-RA,0.00,VWS V14.01,2013-09-20 21:45:00,
2013-09-20 17:50:00,70.5,63.0,29.71,North,0,2.7,2.7,77,0.00,,-RA,0.00,VWS V14.01,2013-09-20 21:50:00,
2013-09-20 17:55:00,70.3,62.8,29.71,West,270,1.1,1.1,77,0.00,,-RA,0.00,VWS V14.01,2013-09-20 21:55:00,
2013-09-20 18:00:00,70.3,62.8,29.71,West,270,3.1,3.1,77,0.00,,-RA,0.00,VWS V14.01,2013-09-20 22:00:00,
2013-09-20 18:05:00,70.3,62.8,29.71,South,180,3.8,3.8,77,0.00,,-RA,0.00,VWS V14.01,2013-09-20 22:05:00,
2013-09-20 18:10:00,70.3,62.8,29.71,West,270,0.9,0.9,77,0.00,,-RA,0.00,VWS V14.01,2013-09-20 22:10:00,
2013-09-20 18:15:00,70.2,62.6,29.71,WSW,248,1.1,1.1,77,0.00,,-RA,0.00,VWS V14.01,2013-09-20 22:15:00,
2013-09-20 18:20:00,70.2,62.6,29.71,North,0,0.0,0.0,77,0.00,,-RA,0.00,VWS V14.01,2013-09-20 22:20:00,
2013-09-20 18:25:00,70.0,62.8,29.71,WSW,248,0.9,0.9,78,0.00,,-RA,0.00,VWS V14.01,2013-09-20 22:25:00,
2013-09-20 18:30:00,70.0,62.8,29.71,NNW,338,0.0,0.0,78,0.00,,-RA,0.00,VWS V14.01,2013-09-20 22:30:00,
2013-09-20 18:35:00,69.8,62.6,29.71,WNW,292,2.0,2.0,78,0.00,,-RA,0.00,VWS V14.01,2013-09-20 22:35:00,
2013-09-20 18:40:00,69.8,62.6,29.71,West,270,0.0,0.0,78,0.00,,-RA,0.00,VWS V14.01,2013-09-20 22:40:00,
2013-09-20 18:45:00,69.6,62.8,29.71,SSW,202,0.0,0.0,79,0.00,,-RA,0.00,VWS V14.01,2013-09-20 22:45:00,
2013-09-20 18:50:00,69.6,62.8,29.71,WNW,292,0.0,0.0,79,0.00,,-RA,0.00,VWS V14.01,2013-09-20 22:50:00,
2013-09-20 18:55:00,69.4,62.7,29.71,WNW,292,0.0,0.0,79,0.00,,-RA,0.00,VWS V14.01,2013-09-20 22:55:00,
2013-09-20 19:00:00,69.3,62.5,29.71,West,270,4.0,4.0,79,0.00,,-RA,0.00,VWS V14.01,2013-09-20 23:00:00,
2013-09-20 19:05:00,69.3,62.8,29.71,West,270,2.0,2.0,80,0.00,,-RA,0.00,VWS V14.01,2013-09-20 23:05:00,
2013-09-20 19:10:00,69.1,62.7,29.71,West,270,0.0,0.0,80,0.00,,-RA,0.00,VWS V14.01,2013-09-20 23:10:00,
2013-09-20 19:15:00,68.9,62.5,29.71,WNW,292,0.0,0.0,80,0.00,,-RA,0.00,VWS V14.01,2013-09-20 23:15:00,
2013-09-20 19:20:00,68.9,62.5,29.71,SW,225,1.6,1.6,80,0.00,,-RA,0.00,VWS V14.01,2013-09-20 23:20:00,
2013-09-20 19:25:00,68.7,62.7,29.71,South,180,0.0,0.0,81,0.00,,-RA,0.00,VWS V14.01,2013-09-20 23:25:00,
2013-09-20 19:30:00,68.5,62.5,29.71,NNE,22,0.0,0.0,81,0.00,,-RA,0.00,VWS V14.01,2013-09-20 23:30:00,
2013-09-20 19:35:00,68.5,62.5,29.71,South,180,0.0,0.0,81,0.00,,-RA,0.00,VWS V14.01,2013-09-20 23:35:00,
2013-09-20 19:40:00,68.4,62.3,29.71,SSW,202,0.0,0.0,81,0.00,,-RA,0.00,VWS V14.01,2013-09-20 23:40:00,
2013-09-20 19:45:00,68.4,62.3,29.71,SE,135,0.0,0.0,81,0.00,,-RA,0.00,VWS V14.01,2013-09-20 23:45:00,
2013-09-20 19:50:00,68.2,62.5,29.71,SSW,202,0.0,0.0,82,0.00,,-RA,0.00,VWS V14.01,2013-09-20 23:50:00,
2013-09-20 19:55:00,68.2,62.5,29.71,SSW,202,0.0,0.0,82,0.00,,-RA,0.00,VWS V14.01,2013-09-20 23:55:00,
2013-09-20 20:00:00,68.0,62.3,29.71,SSW,202,0.0,0.0,82,0.00,,-RA,0.00,VWS V14.01,2013-09-21 00:00:00,
2013-09-20 20:05:00,67.8,62.5,29.71,South,180,1.3,1.3,83,0.00,,-RA,0.00,VWS V14.01,2013-09-21 00:05:00,
2013-09-20 20:10:00,67.8,62.5,29.71,South,180,0.0,0.0,83,0.00,,-RA,0.00,VWS V14.01,2013-09-21 00:10:00,
2013-09-20 20:15:00,67.6,62.3,29.71,SSW,202,0.0,0.0,83,0.00,,-RA,0.00,VWS V14.01,2013-09-21 00:15:00,
2013-09-20 20:20:00,67.6,62.6,29.71,SSW,202,0.0,0.0,84,0.00,,-RA,0.00,VWS V14.01,2013-09-21 00:20:00,
2013-09-20 20:25:00,67.5,62.5,29.71,WSW,248,0.0,0.0,84,0.00,,-RA,0.00,VWS V14.01,2013-09-21 00:25:00,
2013-09-20 20:30:00,67.5,62.5,29.71,SSE,158,0.0,0.0,84,0.00,,-RA,0.00,VWS V14.01,2013-09-21 00:30:00,
2013-09-20 20:35:00,67.3,62.3,29.71,WNW,292,0.0,0.0,84,0.00,,-RA,0.00,VWS V14.01,2013-09-21 00:35:00,
2013-09-20 20:40:00,67.3,62.3,29.71,West,270,2.9,2.9,84,0.00,,-RA,0.00,VWS V14.01,2013-09-21 00:40:00,
2013-09-20 20:45:00,67.5,62.5,29.71,WSW,248,1.3,1.3,84,0.00,,-RA,0.00,VWS V14.01,2013-09-21 00:45:00,
2013-09-20 20:50:00,67.5,62.5,29.71,WNW,292,2.0,2.0,84,0.00,,-RA,0.00,VWS V14.01,2013-09-21 00:50:00,
2013-09-20 20:55:00,67.3,62.0,29.71,WNW,292,0.0,0.0,83,0.00,,-RA,0.00,VWS V14.01,2013-09-21 00:55:00,
2013-09-20 21:00:00,67.3,61.6,29.71,SSE,158,2.0,2.0,82,0.00,,-RA,0.00,VWS V14.01,2013-09-21 01:00:00,
2013-09-20 21:05:00,67.3,61.6,29.71,SSE,158,1.1,1.1,82,0.00,,-RA,0.00,VWS V14.01,2013-09-21 01:05:00,
2013-09-20 21:10:00,67.1,61.4,29.71,West,270,3.4,3.4,82,0.00,,-RA,0.00,VWS V14.01,2013-09-21 01:10:00,
2013-09-20 21:15:00,67.1,61.1,29.71,WNW,292,2.7,2.7,81,0.00,,-RA,0.00,VWS V14.01,2013-09-21 01:15:00,
2013-09-20 21:20:00,66.9,60.9,29.71,West,270,0.0,0.0,81,0.00,,-RA,0.00,VWS V14.01,2013-09-21 01:20:00,
2013-09-20 21:25:00,66.9,60.9,29.71,NW,315,0.0,0.0,81,0.00,,-RA,0.00,VWS V14.01,2013-09-21 01:25:00,
2013-09-20 21:30:00,66.7,60.7,29.71,West,270,0.0,0.0,81,0.00,,-RA,0.00,VWS V14.01,2013-09-21 01:30:00,
2013-09-20 21:35:00,66.7,60.7,29.71,WSW,248,3.6,3.6,81,0.00,,-RA,0.00,VWS V14.01,2013-09-21 01:35:00,
2013-09-20 21:40:00,66.6,60.6,29.71,SW,225,1.6,1.6,81,0.00,,-RA,0.00,VWS V14.01,2013-09-21 01:40:00,
2013-09-20 21:45:00,66.4,60.0,29.71,WSW,248,2.9,2.9,80,0.00,,-RA,0.00,VWS V14.01,2013-09-21 01:45:00,
2013-09-20 21:50:00,66.4,59.7,29.71,SW,225,0.0,0.0,79,0.00,,-RA,0.00,VWS V14.01,2013-09-21 01:50:00,
2013-09-20 21:55:00,66.2,59.5,29.71,NNW,338,3.8,3.8,79,0.00,,-RA,0.00,VWS V14.01,2013-09-21 01:55:00,
2013-09-20 22:00:00,66.0,59.3,29.74,WNW,292,1.3,1.3,79,0.00,,-RA,0.00,VWS V14.01,2013-09-21 02:00:00,
2013-09-20 22:05:00,65.8,58.8,29.74,WNW,292,0.0,0.0,78,0.00,,-RA,0.00,VWS V14.01,2013-09-21 02:05:00,
2013-09-20 22:10:00,65.7,58.6,29.74,WSW,248,2.9,2.9,78,0.00,,-RA,0.00,VWS V14.01,2013-09-21 02:10:00,
2013-09-20 22:15:00,65.7,58.6,29.74,WSW,248,1.6,1.6,78,0.00,,-RA,0.00,VWS V14.01,2013-09-21 02:15:00,
2013-09-20 22:20:00,65.5,58.5,29.74,West,270,6.0,6.0,78,0.00,,-RA,0.00,VWS V14.01,2013-09-21 02:20:00,
2013-09-20 22:25:00,65.5,58.5,29.74,SSW,202,0.0,0.0,78,0.00,,-RA,0.00,VWS V14.01,2013-09-21 02:25:00,
2013-09-20 22:30:00,65.3,58.3,29.74,WNW,292,0.0,0.0,78,0.00,,-RA,0.00,VWS V14.01,2013-09-21 02:30:00,
2013-09-20 22:35:00,65.1,58.1,29.74,NW,315,4.0,4.0,78,0.00,,-RA,0.00,VWS V14.01,2013-09-21 02:35:00,
2013-09-20 22:40:00,65.1,58.1,29.74,NNW,338,3.1,3.1,78,0.00,,-RA,0.00,VWS V14.01,2013-09-21 02:40:00,
2013-09-20 22:45:00,65.1,57.7,29.74,NW,315,3.1,3.1,77,0.00,,-RA,0.00,VWS V14.01,2013-09-21 02:45:00,
2013-09-20 22:50:00,64.9,57.2,29.74,WSW,248,0.0,0.0,76,0.00,,-RA,0.00,VWS V14.01,2013-09-21 02:50:00,
2013-09-20 22:55:00,64.8,57.0,29.74,WNW,292,2.2,2.2,76,0.00,,-RA,0.00,VWS V14.01,2013-09-21 02:55:00,
2013-09-20 23:00:00,64.6,56.8,29.74,WNW,292,2.0,2.0,76,0.00,,-RA,0.00,VWS V14.01,2013-09-21 03:00:00,
2013-09-20 23:05:00,64.4,56.7,29.74,SSW,202,0.9,0.9,76,0.00,,-RA,0.00,VWS V14.01,2013-09-21 03:05:00,
2013-09-20 23:10:00,64.4,56.7,29.74,West,270,0.0,0.0,76,0.00,,-RA,0.00,VWS V14.01,2013-09-21 03:10:00,
2013-09-20 23:15:00,64.2,56.5,29.74,NW,315,0.0,0.0,76,0.00,,-RA,0.00,VWS V14.01,2013-09-21 03:15:00,
2013-09-20 23:20:00,64.0,56.3,29.74,WSW,248,0.0,0.0,76,0.00,,-RA,0.00,VWS V14.01,2013-09-21 03:20:00,
2013-09-20 23:25:00,64.0,56.3,29.74,WSW,248,1.1,1.1,76,0.00,,-RA,0.00,VWS V14.01,2013-09-21 03:25:00,
2013-09-20 23:30:00,63.9,56.2,29.74,WSW,248,0.0,0.0,76,0.00,,-RA,0.00,VWS V14.01,2013-09-21 03:30:00,
2013-09-20 23:35:00,63.7,56.0,29.74,WSW,248,0.9,0.9,76,0.00,,-RA,0.00,VWS V14.01,2013-09-21 03:35:00,
2013-09-20 23:41:00,63.7,56.3,29.74,South,180,0.0,0.0,77,0.00,,-RA,0.00,VWS V14.01,2013-09-21 03:41:00,
2013-09-20 23:46:00,63.5,56.2,29.74,WNW,292,0.0,0.0,77,0.00,,-RA,0.00,VWS V14.01,2013-09-21 03:46:00,
2013-09-20 23:51:00,63.3,56.0,29.74,SSW,202,0.0,0.0,77,0.00,,-RA,0.00,VWS V14.01,2013-09-21 03:51:00,
2013-09-20 23:55:00,63.1,55.8,29.74,SSW,202,0.0,0.0,77,0.00,,-RA,0.00,VWS V14.01,2013-09-21 03:55:00,